Yawata — JG5592 — position and weather

sailwx.info

Track history (hours):
 
Tides and Currents Weather Stations Pressure Air Temp Water Temp Dewpoint Dewpoint Depression Visibility Wind Speed Wind Dir Waves Ship Positions

Yawata

Last reported at 2018-Jan-20 13:07 UTC. Time now 2018-Jan-20 16:47 UTC.
Position N 35°38' E 139°46'.

Length 40 m; draft 2.8 m.

Type: Tug. MMSI: 431100843.

Date/timePositionNaut miles runAvg speedWind from/ knotsBaromVisibWave heightAir tempDewpointWater temp
2018-Jan-20 13:07N 35°38' E 139°46'0 0.0
2018-Jan-20 12:57N 35°38' E 139°46'0 0.0
2018-Jan-20 11:45N 35°38' E 139°46'0 0.0
2018-Jan-20 11:27N 35°38' E 139°46'0 0.0
2018-Jan-20 10:37N 35°38' E 139°46'0 0.0
2018-Jan-20 10:20N 35°38' E 139°46'0 0.0
2018-Jan-20 09:34N 35°38' E 139°46'0 0.0
2018-Jan-20 09:24N 35°38' E 139°46'0 0.0
2018-Jan-20 08:58N 35°38' E 139°46'0 0.0
2018-Jan-20 04:07N 35°38' E 139°46'0 0.0
2018-Jan-20 01:19N 35°38' E 139°46'0 0.0
2018-Jan-20 00:04N 35°38' E 139°46'0 0.0
2018-Jan-19 23:55N 35°38' E 139°46'0 0.0
2018-Jan-19 21:16N 35°38' E 139°46'0 0.0
2018-Jan-19 20:44N 35°38' E 139°46'0 0.0
2018-Jan-19 17:30N 35°38' E 139°46'0 0.0
2018-Jan-19 15:46N 35°38' E 139°46'0 0.0
2018-Jan-19 12:02N 35°38' E 139°46'0 0.0
2018-Jan-19 11:40N 35°38' E 139°46'0 0.0
2018-Jan-19 10:58N 35°38' E 139°46'0 0.0
2018-Jan-19 10:25N 35°38' E 139°46'0 0.0
2018-Jan-18 23:59N 35°38' E 139°46'0 0.0
2018-Jan-18 17:19N 35°38' E 139°46'0 0.0
2018-Jan-18 16:56N 35°38' E 139°46'0 0.0
2018-Jan-18 16:29N 35°38' E 139°46'0 0.0
2018-Jan-18 16:00N 35°38' E 139°46'0 0.0
2018-Jan-18 15:30N 35°38' E 139°46'0 0.0
2018-Jan-18 15:00N 35°38' E 139°46'2 3.4
2018-Jan-18 14:30N 35°37' E 139°47'2 3.6
2018-Jan-18 14:01N 35°35' E 139°48'1 2.6
2018-Jan-18 13:28N 35°36' E 139°47'2 0.9
2018-Jan-18 11:07N 35°38' E 139°46'0 0.0
2018-Jan-18 10:22N 35°38' E 139°46'1 3.6
2018-Jan-18 10:00N 35°37' E 139°46'1 1.9
2018-Jan-18 09:30N 35°36' E 139°47'2 4.4
2018-Jan-18 09:00N 35°35' E 139°48'4 8.0
2018-Jan-18 08:30N 35°38' E 139°46'1 0.1
2018-Jan-17 23:34N 35°38' E 139°46'  
2018-Jan-12 14:27N 35°39' E 139°46'0 0.0
2018-Jan-12 13:53N 35°39' E 139°46'0 0.0
2018-Jan-12 13:19N 35°39' E 139°46'0 0.0
2018-Jan-12 12:57N 35°39' E 139°46'0 0.0
2018-Jan-12 12:24N 35°39' E 139°46'0 0.0
2018-Jan-12 11:59N 35°39' E 139°46'0 0.0
2018-Jan-11 21:33N 35°39' E 139°46'0 0.0
2018-Jan-11 21:29N 35°39' E 139°46'2 4.9
2018-Jan-11 20:59N 35°37' E 139°47'0 0.4
2018-Jan-11 20:31N 35°36' E 139°47'1 2.2
2018-Jan-11 20:00N 35°35' E 139°47'1 2.3
2018-Jan-11 19:30N 35°36' E 139°46'0 0.3
2018-Jan-11 18:58N 35°36' E 139°46'1 2.0
2018-Jan-11 18:30N 35°37' E 139°46'2 2.8
2018-Jan-11 17:57N 35°39' E 139°46'0 0.0
2018-Jan-11 17:30N 35°39' E 139°46'0 0.0
2018-Jan-11 16:23N 35°39' E 139°46'0 0.0
2018-Jan-11 13:43N 35°39' E 139°46'0 0.0
2018-Jan-11 13:22N 35°39' E 139°46'0 0.0
2018-Jan-11 12:07N 35°39' E 139°46'0 0.0
2018-Jan-11 11:56N 35°39' E 139°46'0 0.0
2018-Jan-11 11:18N 35°39' E 139°46'0 0.0
2018-Jan-11 10:57N 35°39' E 139°46'0 0.0
2018-Jan-11 10:17N 35°39' E 139°46'0 0.0
2018-Jan-11 09:30N 35°39' E 139°46'0 0.0
2018-Jan-11 07:45N 35°39' E 139°46'0 0.0
2018-Jan-11 07:25N 35°39' E 139°46'0 0.0
2018-Jan-11 06:59N 35°39' E 139°46'0 0.0
2018-Jan-11 05:59N 35°39' E 139°46'0 0.0
2018-Jan-11 05:24N 35°39' E 139°46'0 0.0
2018-Jan-11 04:56N 35°39' E 139°46'0 0.0
2018-Jan-11 04:18N 35°39' E 139°46'0 0.0
2018-Jan-11 03:58N 35°39' E 139°46'0 0.0
2018-Jan-11 03:21N 35°39' E 139°46'0 0.0
2018-Jan-11 02:45N 35°39' E 139°46'0 0.0
2018-Jan-11 02:27N 35°39' E 139°46'0 0.0
2018-Jan-11 01:56N 35°39' E 139°46'0 0.0
2018-Jan-11 01:10N 35°39' E 139°46'0 0.0
2018-Jan-11 00:46N 35°39' E 139°46'0 0.0
2018-Jan-11 00:25N 35°39' E 139°46'0 0.0
2018-Jan-10 23:55N 35°39' E 139°46'0 0.0
2018-Jan-10 23:29N 35°39' E 139°46'0 0.0
2018-Jan-10 23:00N 35°39' E 139°46'2 4.9
2018-Jan-10 22:30N 35°36' E 139°46'1 2.2
2018-Jan-10 22:00N 35°35' E 139°47'2 3.4
2018-Jan-10 21:27N 35°34' E 139°48'0 0.4
2018-Jan-10 20:59N 35°34' E 139°48'3 5.4
2018-Jan-10 20:30N 35°36' E 139°47'1 1.3
2018-Jan-10 19:59N 35°37' E 139°46'  
Track history (hours):
 
Tides and Currents Weather Stations Pressure Air Temp Water Temp Dewpoint Dewpoint Depression Visibility Wind Speed Wind Dir Waves Ship Positions

Yawata

Last reported at 2018-Jan-20 13:07 UTC. Time now 2018-Jan-20 16:47 UTC.
Position N 35°38' E 139°46'.

Length 40 m; draft 2.8 m.

Type: Tug. MMSI: 431100843.

Date/timePositionNaut miles runAvg speedWind from/ knotsBaromVisibWave heightAir tempDewpointWater temp
2018-Jan-20 13:07N 35°38' E 139°46'0 0.0
2018-Jan-20 12:57N 35°38' E 139°46'0 0.0
2018-Jan-20 11:45N 35°38' E 139°46'0 0.0
2018-Jan-20 11:27N 35°38' E 139°46'0 0.0
2018-Jan-20 10:37N 35°38' E 139°46'0 0.0
2018-Jan-20 10:20N 35°38' E 139°46'0 0.0
2018-Jan-20 09:34N 35°38' E 139°46'0 0.0
2018-Jan-20 09:24N 35°38' E 139°46'0 0.0
2018-Jan-20 08:58N 35°38' E 139°46'0 0.0
2018-Jan-20 04:07N 35°38' E 139°46'0 0.0
2018-Jan-20 01:19N 35°38' E 139°46'0 0.0
2018-Jan-20 00:04N 35°38' E 139°46'0 0.0
2018-Jan-19 23:55N 35°38' E 139°46'0 0.0
2018-Jan-19 21:16N 35°38' E 139°46'0 0.0
2018-Jan-19 20:44N 35°38' E 139°46'0 0.0
2018-Jan-19 17:30N 35°38' E 139°46'0 0.0
2018-Jan-19 15:46N 35°38' E 139°46'0 0.0
2018-Jan-19 12:02N 35°38' E 139°46'0 0.0
2018-Jan-19 11:40N 35°38' E 139°46'0 0.0
2018-Jan-19 10:58N 35°38' E 139°46'0 0.0
2018-Jan-19 10:25N 35°38' E 139°46'0 0.0
2018-Jan-18 23:59N 35°38' E 139°46'0 0.0
2018-Jan-18 17:19N 35°38' E 139°46'0 0.0
2018-Jan-18 16:56N 35°38' E 139°46'0 0.0
2018-Jan-18 16:29N 35°38' E 139°46'0 0.0
2018-Jan-18 16:00N 35°38' E 139°46'0 0.0
2018-Jan-18 15:30N 35°38' E 139°46'0 0.0
2018-Jan-18 15:00N 35°38' E 139°46'2 3.4
2018-Jan-18 14:30N 35°37' E 139°47'2 3.6
2018-Jan-18 14:01N 35°35' E 139°48'1 2.6
2018-Jan-18 13:28N 35°36' E 139°47'2 0.9
2018-Jan-18 11:07N 35°38' E 139°46'0 0.0
2018-Jan-18 10:22N 35°38' E 139°46'1 3.6
2018-Jan-18 10:00N 35°37' E 139°46'1 1.9
2018-Jan-18 09:30N 35°36' E 139°47'2 4.4
2018-Jan-18 09:00N 35°35' E 139°48'4 8.0
2018-Jan-18 08:30N 35°38' E 139°46'1 0.1
2018-Jan-17 23:34N 35°38' E 139°46'  
2018-Jan-12 14:27N 35°39' E 139°46'0 0.0
2018-Jan-12 13:53N 35°39' E 139°46'0 0.0
2018-Jan-12 13:19N 35°39' E 139°46'0 0.0
2018-Jan-12 12:57N 35°39' E 139°46'0 0.0
2018-Jan-12 12:24N 35°39' E 139°46'0 0.0
2018-Jan-12 11:59N 35°39' E 139°46'0 0.0
2018-Jan-11 21:33N 35°39' E 139°46'0 0.0
2018-Jan-11 21:29N 35°39' E 139°46'2 4.9
2018-Jan-11 20:59N 35°37' E 139°47'0 0.4
2018-Jan-11 20:31N 35°36' E 139°47'1 2.2
2018-Jan-11 20:00N 35°35' E 139°47'1 2.3
2018-Jan-11 19:30N 35°36' E 139°46'0 0.3
2018-Jan-11 18:58N 35°36' E 139°46'1 2.0
2018-Jan-11 18:30N 35°37' E 139°46'2 2.8
2018-Jan-11 17:57N 35°39' E 139°46'0 0.0
2018-Jan-11 17:30N 35°39' E 139°46'0 0.0
2018-Jan-11 16:23N 35°39' E 139°46'0 0.0
2018-Jan-11 13:43N 35°39' E 139°46'0 0.0
2018-Jan-11 13:22N 35°39' E 139°46'0 0.0
2018-Jan-11 12:07N 35°39' E 139°46'0 0.0
2018-Jan-11 11:56N 35°39' E 139°46'0 0.0
2018-Jan-11 11:18N 35°39' E 139°46'0 0.0
2018-Jan-11 10:57N 35°39' E 139°46'0 0.0
2018-Jan-11 10:17N 35°39' E 139°46'0 0.0
2018-Jan-11 09:30N 35°39' E 139°46'0 0.0
2018-Jan-11 07:45N 35°39' E 139°46'0 0.0
2018-Jan-11 07:25N 35°39' E 139°46'0 0.0
2018-Jan-11 06:59N 35°39' E 139°46'0 0.0
2018-Jan-11 05:59N 35°39' E 139°46'0 0.0
2018-Jan-11 05:24N 35°39' E 139°46'0 0.0
2018-Jan-11 04:56N 35°39' E 139°46'0 0.0
2018-Jan-11 04:18N 35°39' E 139°46'0 0.0
2018-Jan-11 03:58N 35°39' E 139°46'0 0.0
2018-Jan-11 03:21N 35°39' E 139°46'0 0.0
2018-Jan-11 02:45N 35°39' E 139°46'0 0.0
2018-Jan-11 02:27N 35°39' E 139°46'0 0.0
2018-Jan-11 01:56N 35°39' E 139°46'0 0.0
2018-Jan-11 01:10N 35°39' E 139°46'0 0.0
2018-Jan-11 00:46N 35°39' E 139°46'0 0.0
2018-Jan-11 00:25N 35°39' E 139°46'0 0.0
2018-Jan-10 23:55N 35°39' E 139°46'0 0.0
2018-Jan-10 23:29N 35°39' E 139°46'0 0.0
2018-Jan-10 23:00N 35°39' E 139°46'2 4.9
2018-Jan-10 22:30N 35°36' E 139°46'1 2.2
2018-Jan-10 22:00N 35°35' E 139°47'2 3.4
2018-Jan-10 21:27N 35°34' E 139°48'0 0.4
2018-Jan-10 20:59N 35°34' E 139°48'3 5.4
2018-Jan-10 20:30N 35°36' E 139°47'1 1.3
2018-Jan-10 19:59N 35°37' E 139°46'  

Dump ship's entire track history